Time;durP1;ratioP1;P1;durP2;ratioP2;P2;SDS_P1;SDS_P2;PMS_P1;PMS_P2;Temp;Humidity;BMP_temperature;BMP_pressure;BME280_temperature;BME280_humidity;BME280_pressure;Samples;Min_cycle;Max_cycle;Signal;HPM_P1;HPM_P2
2024/01/13 00:01:07;;;;;;;7.18;6.13;;;3.50;99.90;;;;;;4975497;28;20030;-81
2024/01/13 00:03:34;;;;;;;11.88;6.57;;;3.40;99.90;;;;;;5006552;28;20038;-81
2024/01/13 00:06:01;;;;;;;7.82;6.28;;;3.50;99.90;;;;;;4990999;28;20041;-82
2024/01/13 00:08:27;;;;;;;10.05;6.95;;;3.50;99.90;;;;;;4991278;28;20030;-78
2024/01/13 00:10:54;;;;;;;10.25;6.75;;;3.50;99.90;;;;;;4975868;28;21070;-82
2024/01/13 00:13:20;;;;;;;8.85;5.95;;;3.50;99.90;;;;;;4974123;28;20034;-83
2024/01/13 00:15:46;;;;;;;10.18;7.43;;;3.50;99.90;;;;;;4957914;28;20049;-84
2024/01/13 00:18:13;;;;;;;8.95;6.72;;;3.50;99.90;;;;;;5006477;28;20481;-83
2024/01/13 00:20:40;;;;;;;10.97;7.20;;;3.50;99.90;;;;;;4985584;28;20049;-79
2024/01/13 00:23:06;;;;;;;10.20;7.40;;;3.50;99.90;;;;;;4975891;28;20060;-79
2024/01/13 00:25:33;;;;;;;9.63;7.60;;;3.50;99.90;;;;;;4989748;28;20039;-77
2024/01/13 00:27:59;;;;;;;10.05;7.30;;;3.50;99.90;;;;;;4987908;28;20041;-75
2024/01/13 00:30:25;;;;;;;10.13;7.38;;;3.50;99.90;;;;;;4990612;28;20030;-77
2024/01/13 00:32:51;;;;;;;10.50;7.32;;;3.50;99.90;;;;;;4974729;28;20018;-83
2024/01/13 00:35:18;;;;;;;10.70;7.70;;;3.50;99.90;;;;;;5005849;28;20142;-80
2024/01/13 00:37:44;;;;;;;12.63;9.35;;;3.50;99.90;;;;;;4957755;28;20038;-84
2024/01/13 00:40:14;;;;;;;11.65;8.63;;;3.50;99.90;;;;;;4975427;28;20026;-86
2024/01/13 00:42:43;;;;;;;10.95;8.77;;;3.60;99.90;;;;;;4974264;28;20038;-83
2024/01/13 00:45:09;;;;;;;11.50;9.50;;;3.50;99.90;;;;;;4974046;28;20050;-81
2024/01/13 00:47:36;;;;;;;11.55;8.55;;;3.50;99.90;;;;;;4974826;28;20049;-78
2024/01/13 00:50:02;;;;;;;13.02;9.50;;;3.50;99.90;;;;;;5005499;28;20038;-82
2024/01/13 00:52:30;;;;;;;15.25;10.25;;;3.50;99.90;;;;;;4970359;28;20042;-81
2024/01/13 00:54:57;;;;;;;12.80;9.65;;;3.50;99.90;;;;;;4975096;28;20042;-82
2024/01/13 00:57:24;;;;;;;13.20;10.48;;;3.50;99.90;;;;;;4991324;28;20042;-80
2024/01/13 00:59:50;;;;;;;13.23;9.73;;;3.50;99.90;;;;;;4977646;28;20031;-83
2024/01/13 01:02:16;;;;;;;13.97;11.60;;;3.50;99.90;;;;;;4960045;28;20075;-74
2024/01/13 01:04:43;;;;;;;15.55;11.88;;;3.50;99.90;;;;;;4974771;28;20510;-80
2024/01/13 01:07:09;;;;;;;16.42;12.27;;;3.50;99.90;;;;;;4982037;28;20038;-78
2024/01/13 01:09:35;;;;;;;17.33;12.60;;;3.50;99.90;;;;;;5010701;28;20031;-81
2024/01/13 01:12:02;;;;;;;18.08;13.45;;;3.50;99.90;;;;;;5014053;28;20030;-83
2024/01/13 01:14:28;;;;;;;22.95;16.52;;;3.50;99.90;;;;;;4980222;28;20038;-76
2024/01/13 01:16:55;;;;;;;19.23;15.02;;;3.50;99.90;;;;;;4976150;28;20045;-81
2024/01/13 01:19:21;;;;;;;25.70;17.67;;;3.50;99.90;;;;;;4958159;28;20038;-79
2024/01/13 01:21:48;;;;;;;25.90;18.20;;;3.50;99.90;;;;;;4974042;28;20413;-77
2024/01/13 01:24:14;;;;;;;26.20;18.38;;;3.50;99.90;;;;;;5005371;28;20030;-77
2024/01/13 01:26:40;;;;;;;25.80;18.02;;;3.50;99.90;;;;;;4960193;28;20536;-80
2024/01/13 01:29:07;;;;;;;28.13;19.02;;;3.50;99.90;;;;;;4970768;28;20049;-80
2024/01/13 01:31:33;;;;;;;28.25;19.42;;;3.50;99.90;;;;;;4956711;28;20370;-82
2024/01/13 01:34:00;;;;;;;26.40;18.58;;;3.50;99.90;;;;;;4973434;28;20474;-82
2024/01/13 01:36:26;;;;;;;24.67;17.77;;;3.50;99.90;;;;;;4975544;28;20034;-75
2024/01/13 01:38:52;;;;;;;23.83;17.00;;;3.50;99.90;;;;;;4956366;28;20053;-82
2024/01/13 01:41:20;;;;;;;24.83;17.52;;;3.50;99.90;;;;;;4972742;28;20065;-78
2024/01/13 01:43:47;;;;;;;24.42;16.58;;;3.50;99.90;;;;;;4966790;28;20441;-82
2024/01/13 01:46:14;;;;;;;23.10;16.58;;;3.50;99.90;;;;;;4989044;28;20532;-83
2024/01/13 01:48:41;;;;;;;24.88;17.48;;;3.50;99.90;;;;;;5007220;28;20045;-82
2024/01/13 01:51:09;;;;;;;19.40;13.83;;;3.50;99.90;;;;;;4974807;28;20038;-83
2024/01/13 01:53:37;;;;;;;25.42;17.10;;;3.50;99.90;;;;;;4985162;28;20038;-83
2024/01/13 01:56:13;;;;;;;21.40;14.85;;;3.50;99.90;;;;;;4990856;28;20041;-83
2024/01/13 01:58:41;;;;;;;19.63;14.50;;;3.50;99.90;;;;;;4973444;28;20042;-82
2024/01/13 02:01:08;;;;;;;22.50;15.18;;;3.50;99.90;;;;;;4974744;28;20027;-76
2024/01/13 02:03:35;;;;;;;23.58;15.82;;;3.50;99.90;;;;;;4941561;28;20045;-81
2024/01/13 02:06:02;;;;;;;24.23;15.88;;;3.60;99.90;;;;;;4958299;28;20045;-80
2024/01/13 02:08:29;;;;;;;23.67;14.80;;;3.60;99.90;;;;;;4991343;28;20034;-83
2024/01/13 02:10:55;;;;;;;29.20;18.95;;;3.60;99.90;;;;;;4975256;28;20508;-83
2024/01/13 02:13:21;;;;;;;24.50;16.75;;;3.50;99.90;;;;;;4975829;28;20039;-80
2024/01/13 02:15:48;;;;;;;28.80;17.58;;;3.50;99.90;;;;;;5008006;28;20393;-78
2024/01/13 02:18:14;;;;;;;23.70;15.43;;;3.50;99.90;;;;;;4975070;28;20475;-79
2024/01/13 02:20:40;;;;;;;23.05;16.00;;;3.50;99.90;;;;;;4977171;28;20110;-78
2024/01/13 02:23:07;;;;;;;24.13;16.02;;;3.50;99.90;;;;;;4951772;28;20533;-79
2024/01/13 02:25:33;;;;;;;26.23;17.75;;;3.50;99.90;;;;;;4976587;28;20038;-82
2024/01/13 02:27:59;;;;;;;25.53;16.23;;;3.50;99.90;;;;;;4958538;28;20030;-80
2024/01/13 02:30:26;;;;;;;23.50;15.35;;;3.50;99.90;;;;;;4958288;28;20470;-81
2024/01/13 02:32:53;;;;;;;23.63;14.68;;;3.50;99.90;;;;;;4991609;28;20485;-80
2024/01/13 02:35:19;;;;;;;24.13;15.80;;;3.50;99.90;;;;;;4974705;28;20030;-81
2024/01/13 02:37:45;;;;;;;20.63;14.13;;;3.50;99.90;;;;;;4975164;28;20046;-82
2024/01/13 02:40:12;;;;;;;19.80;12.82;;;3.50;99.90;;;;;;5007342;28;20060;-83
2024/01/13 02:42:38;;;;;;;25.83;15.38;;;3.50;99.90;;;;;;4976378;28;20045;-80
2024/01/13 02:45:05;;;;;;;21.65;13.93;;;3.50;99.90;;;;;;4959049;28;20042;-75
2024/01/13 02:48:00;;;;;;;27.60;18.90;;;3.50;99.90;;;;;;4942084;28;20037;-82
2024/01/13 02:50:27;;;;;;;20.35;13.90;;;3.50;99.90;;;;;;5007234;28;20037;-81
2024/01/13 02:52:53;;;;;;;22.55;13.65;;;3.50;99.90;;;;;;4942583;28;20057;-79
2024/01/13 02:55:20;;;;;;;18.05;13.05;;;3.50;99.90;;;;;;4958745;28;20038;-79
2024/01/13 02:57:46;;;;;;;22.42;14.70;;;3.50;99.90;;;;;;4991434;28;20097;-78
2024/01/13 03:00:13;;;;;;;20.37;14.20;;;3.50;99.90;;;;;;4984903;28;20486;-82
2024/01/13 03:02:40;;;;;;;18.85;12.90;;;3.50;99.90;;;;;;4976512;28;20030;-79
2024/01/13 03:05:10;;;;;;;33.63;18.98;;;3.50;99.90;;;;;;4976744;28;20026;-79
2024/01/13 03:07:36;;;;;;;21.02;14.43;;;3.50;99.90;;;;;;4980105;28;20034;-82
2024/01/13 03:10:03;;;;;;;18.73;12.63;;;3.50;99.90;;;;;;4977638;28;20053;-80
2024/01/13 03:12:29;;;;;;;18.58;12.98;;;3.50;99.90;;;;;;4976240;28;20042;-76
2024/01/13 03:14:56;;;;;;;19.48;13.10;;;3.40;99.90;;;;;;4975502;28;22918;-83
2024/01/13 03:17:22;;;;;;;18.00;12.48;;;3.40;99.90;;;;;;4990909;28;20477;-82
2024/01/13 03:19:49;;;;;;;16.10;10.60;;;3.40;99.90;;;;;;4974785;28;20037;-80
2024/01/13 03:22:15;;;;;;;19.98;13.07;;;3.30;99.90;;;;;;4955157;28;20038;-80
2024/01/13 03:24:41;;;;;;;18.55;12.68;;;3.30;99.90;;;;;;4990584;28;20474;-82
2024/01/13 03:27:08;;;;;;;16.63;11.57;;;3.30;99.90;;;;;;5005867;28;20069;-83
2024/01/13 03:29:34;;;;;;;18.23;11.95;;;3.30;99.90;;;;;;4957738;28;20053;-82
2024/01/13 03:32:00;;;;;;;21.23;13.88;;;3.30;99.90;;;;;;4954963;28;20473;-83
2024/01/13 03:34:27;;;;;;;18.63;12.80;;;3.40;99.90;;;;;;5006213;28;20038;-78
2024/01/13 03:36:53;;;;;;;19.27;13.13;;;3.40;99.90;;;;;;4989353;28;20054;-81
2024/01/13 03:39:20;;;;;;;18.08;13.85;;;3.40;99.90;;;;;;4993458;28;20042;-82
2024/01/13 03:41:49;;;;;;;20.27;14.00;;;3.40;99.90;;;;;;4960842;28;20038;-84
2024/01/13 03:44:15;;;;;;;19.17;13.60;;;3.40;99.90;;;;;;4976629;28;20038;-83
2024/01/13 03:46:41;;;;;;;20.02;13.80;;;3.50;99.90;;;;;;4958585;28;20233;-84
2024/01/13 03:49:08;;;;;;;24.95;15.85;;;3.40;99.90;;;;;;4943628;28;20474;-84
2024/01/13 03:51:34;;;;;;;26.03;17.37;;;3.40;99.90;;;;;;4975141;28;20030;-81
2024/01/13 03:54:00;;;;;;;25.55;16.73;;;3.40;99.90;;;;;;4955159;28;20042;-83
2024/01/13 03:56:27;;;;;;;24.50;16.20;;;3.50;99.90;;;;;;4972424;28;20038;-80
2024/01/13 03:58:53;;;;;;;30.88;19.02;;;3.40;99.90;;;;;;4975239;28;20054;-83
2024/01/13 04:01:19;;;;;;;22.23;14.85;;;3.50;99.90;;;;;;5007901;28;20034;-81
2024/01/13 04:03:46;;;;;;;24.42;15.48;;;3.40;99.90;;;;;;4976824;28;20626;-84
2024/01/13 04:06:12;;;;;;;25.52;16.52;;;3.50;99.90;;;;;;4976078;28;20239;-76
2024/01/13 04:08:39;;;;;;;35.05;20.38;;;3.50;99.90;;;;;;4960506;28;20041;-80
2024/01/13 04:11:10;;;;;;;25.33;16.00;;;3.50;99.90;;;;;;4977327;28;20054;-81
2024/01/13 04:13:36;;;;;;;35.28;21.20;;;3.50;99.90;;;;;;5007745;28;20038;-82
2024/01/13 04:16:03;;;;;;;35.00;20.92;;;3.50;99.90;;;;;;4942575;28;20030;-82
2024/01/13 04:18:30;;;;;;;37.95;21.80;;;3.50;99.90;;;;;;4991786;28;20065;-83
2024/01/13 04:20:56;;;;;;;32.63;21.05;;;3.50;99.90;;;;;;4973882;28;20038;-81
2024/01/13 04:23:22;;;;;;;35.58;21.60;;;3.50;99.90;;;;;;4976978;28;20046;-81
2024/01/13 04:25:49;;;;;;;32.22;20.00;;;3.50;99.90;;;;;;4976321;28;20612;-83
2024/01/13 04:28:15;;;;;;;57.75;28.73;;;3.50;99.90;;;;;;4994136;28;20481;-79
2024/01/13 04:30:42;;;;;;;40.03;23.83;;;3.50;99.90;;;;;;4994774;28;20103;-83
2024/01/13 04:33:08;;;;;;;42.10;25.35;;;3.50;99.90;;;;;;4979375;28;20034;-78
2024/01/13 04:35:34;;;;;;;39.70;24.27;;;3.50;99.90;;;;;;4981862;28;20034;-82
2024/01/13 04:38:01;;;;;;;46.00;24.10;;;3.50;99.90;;;;;;4980327;28;20039;-81
2024/01/13 04:40:29;;;;;;;38.35;23.00;;;3.50;99.90;;;;;;4964264;28;20034;-79
2024/01/13 04:42:56;;;;;;;39.38;23.73;;;3.50;99.90;;;;;;4977622;28;20045;-78
2024/01/13 04:45:22;;;;;;;38.80;24.15;;;3.50;99.90;;;;;;4977602;28;20034;-78
2024/01/13 04:47:48;;;;;;;41.95;25.52;;;3.50;99.90;;;;;;4977573;28;20113;-81
2024/01/13 04:50:15;;;;;;;38.75;22.65;;;3.50;99.90;;;;;;4974634;28;20027;-84
2024/01/13 04:52:41;;;;;;;36.65;22.58;;;3.50;99.90;;;;;;4976661;28;20477;-85
2024/01/13 04:55:08;;;;;;;37.33;22.50;;;3.50;99.90;;;;;;4944467;28;20051;-82
2024/01/13 04:57:34;;;;;;;39.58;24.20;;;3.50;99.90;;;;;;5008512;28;20035;-81
2024/01/13 05:00:00;;;;;;;39.08;22.52;;;3.60;99.90;;;;;;4979019;28;20038;-83
2024/01/13 05:02:27;;;;;;;32.45;20.38;;;3.60;99.90;;;;;;4979387;28;20432;-77
2024/01/13 05:04:53;;;;;;;36.33;21.88;;;3.60;99.90;;;;;;4991606;28;20050;-83
2024/01/13 05:07:20;;;;;;;34.87;22.33;;;3.60;99.90;;;;;;5011868;28;20034;-79
2024/01/13 05:09:49;;;;;;;35.45;22.10;;;3.60;99.90;;;;;;4963930;28;20038;-83
2024/01/13 05:12:16;;;;;;;32.70;20.55;;;3.60;99.90;;;;;;4975808;28;20042;-80
2024/01/13 05:14:43;;;;;;;29.27;18.67;;;3.60;99.90;;;;;;5009879;28;20398;-84
2024/01/13 05:17:09;;;;;;;28.20;17.17;;;3.60;99.90;;;;;;4962859;28;20030;-83
2024/01/13 05:19:36;;;;;;;26.88;16.48;;;3.60;99.90;;;;;;4975886;28;20042;-82
2024/01/13 05:22:02;;;;;;;25.30;15.70;;;3.60;99.90;;;;;;5009848;28;20039;-79
2024/01/13 05:24:28;;;;;;;23.45;15.60;;;3.60;99.90;;;;;;4978416;28;20038;-81
2024/01/13 05:26:55;;;;;;;23.67;14.45;;;3.50;99.90;;;;;;4990075;28;20034;-80
2024/01/13 05:29:21;;;;;;;23.40;15.02;;;3.50;99.90;;;;;;4975270;28;20053;-83
2024/01/13 05:31:47;;;;;;;22.83;14.77;;;3.50;99.90;;;;;;4977564;28;20057;-84
2024/01/13 05:34:14;;;;;;;20.63;13.15;;;3.50;99.90;;;;;;4974674;28;20510;-84
2024/01/13 05:36:40;;;;;;;26.10;15.73;;;3.50;99.90;;;;;;4976247;28;20073;-83
2024/01/13 05:39:06;;;;;;;25.15;15.52;;;3.50;99.90;;;;;;5007619;28;20470;-82
2024/01/13 05:41:33;;;;;;;20.05;13.20;;;3.50;99.90;;;;;;4960103;28;20034;-84
2024/01/13 05:43:59;;;;;;;20.58;12.73;;;3.50;99.90;;;;;;4989324;28;20053;-82
2024/01/13 05:46:25;;;;;;;23.95;14.05;;;3.50;99.90;;;;;;4976591;28;20062;-84
2024/01/13 05:48:52;;;;;;;21.75;13.13;;;3.50;99.90;;;;;;4989339;28;20045;-83
2024/01/13 05:51:18;;;;;;;20.50;13.52;;;3.60;99.90;;;;;;4956818;28;20054;-81
2024/01/13 05:53:45;;;;;;;27.08;17.55;;;3.50;99.90;;;;;;5006105;28;20084;-82
2024/01/13 05:56:11;;;;;;;26.38;16.95;;;3.50;99.90;;;;;;4975372;28;20042;-79
2024/01/13 05:58:41;;;;;;;27.63;15.93;;;3.50;99.90;;;;;;5005381;28;20077;-83
2024/01/13 06:01:07;;;;;;;32.42;20.58;;;3.50;99.90;;;;;;4958245;28;20034;-83
2024/01/13 06:03:33;;;;;;;28.73;18.73;;;3.50;99.90;;;;;;4973386;28;20042;-83
2024/01/13 06:05:59;;;;;;;31.05;20.70;;;3.50;99.90;;;;;;4989241;28;20030;-84
2024/01/13 06:08:26;;;;;;;40.22;26.10;;;3.50;99.90;;;;;;4973794;28;20038;-79
2024/01/13 06:10:52;;;;;;;36.50;23.88;;;3.50;99.90;;;;;;4974702;28;20038;-81
2024/01/13 06:13:18;;;;;;;39.65;25.63;;;3.50;99.90;;;;;;5007061;28;20026;-79
2024/01/13 06:15:45;;;;;;;37.20;23.70;;;3.50;99.90;;;;;;4975765;28;20401;-83
2024/01/13 06:18:11;;;;;;;30.60;20.60;;;3.50;99.90;;;;;;4958935;28;20465;-81
2024/01/13 06:20:37;;;;;;;35.42;23.38;;;3.50;99.90;;;;;;5006488;28;20528;-84
2024/01/13 06:23:05;;;;;;;42.17;27.50;;;3.50;99.90;;;;;;4971886;28;20034;-82
2024/01/13 06:25:32;;;;;;;36.95;23.65;;;3.50;99.90;;;;;;4932188;28;1208260;-82
2024/01/13 06:27:58;;;;;;;37.92;24.42;;;3.60;99.90;;;;;;4976533;28;20038;-81
2024/01/13 06:30:24;;;;;;;31.58;20.45;;;3.60;99.90;;;;;;4976558;28;20045;-84
2024/01/13 06:32:51;;;;;;;33.40;21.30;;;3.60;99.90;;;;;;4959773;28;20027;-83
2024/01/13 06:35:17;;;;;;;36.35;23.75;;;3.60;99.90;;;;;;4990341;28;20045;-83
2024/01/13 06:37:43;;;;;;;33.97;22.30;;;3.60;99.90;;;;;;4990724;28;20061;-82
2024/01/13 06:40:10;;;;;;;37.50;24.50;;;3.60;99.90;;;;;;4975503;28;20450;-84
2024/01/13 06:42:38;;;;;;;34.67;23.20;;;3.60;99.90;;;;;;5006227;28;20370;-83
2024/01/13 06:45:05;;;;;;;38.00;25.70;;;3.60;99.90;;;;;;4958499;28;20053;-82
2024/01/13 06:47:32;;;;;;;36.00;23.47;;;3.60;99.90;;;;;;4974733;28;20034;-80
2024/01/13 06:49:58;;;;;;;34.53;22.93;;;3.60;99.90;;;;;;5006137;28;20451;-80
2024/01/13 06:52:24;;;;;;;30.90;21.03;;;3.60;99.90;;;;;;4978581;28;20034;-75
2024/01/13 06:54:51;;;;;;;33.83;22.33;;;3.60;99.90;;;;;;4981481;28;20031;-82
2024/01/13 06:57:17;;;;;;;36.72;24.67;;;3.60;99.90;;;;;;4977412;28;20050;-80
2024/01/13 06:59:44;;;;;;;38.47;25.13;;;3.60;99.90;;;;;;4959591;28;20042;-80
2024/01/13 07:02:10;;;;;;;43.97;27.70;;;3.60;99.90;;;;;;4975806;28;20414;-81
2024/01/13 07:04:38;;;;;;;36.53;24.50;;;3.60;99.90;;;;;;4991542;28;20394;-81
2024/01/13 07:07:05;;;;;;;37.65;27.05;;;3.60;99.90;;;;;;4960333;28;20041;-79
2024/01/13 07:09:31;;;;;;;38.97;27.13;;;3.60;99.90;;;;;;4991384;28;20045;-83
2024/01/13 07:11:58;;;;;;;35.57;24.33;;;3.60;99.90;;;;;;4990676;28;20042;-79
2024/01/13 07:14:25;;;;;;;32.95;23.38;;;3.60;99.90;;;;;;4975396;28;20041;-79
2024/01/13 07:16:51;;;;;;;33.73;22.43;;;3.60;99.90;;;;;;4975751;28;20046;-79
2024/01/13 07:19:17;;;;;;;31.15;21.35;;;3.60;99.90;;;;;;4943796;28;20512;-82
2024/01/13 07:21:45;;;;;;;34.87;22.17;;;3.60;99.90;;;;;;4990605;28;20030;-83
2024/01/13 07:24:12;;;;;;;32.15;20.35;;;3.60;99.90;;;;;;4976485;28;20030;-83
2024/01/13 07:26:43;;;;;;;32.25;21.83;;;3.60;99.90;;;;;;4991703;28;20065;-83
2024/01/13 07:29:10;;;;;;;34.90;20.45;;;3.60;99.90;;;;;;4975018;28;20045;-83
2024/01/13 07:31:36;;;;;;;33.05;21.33;;;3.60;99.90;;;;;;4973872;28;20027;-84
2024/01/13 07:34:03;;;;;;;25.30;15.77;;;3.60;99.90;;;;;;4943725;28;20038;-81
2024/01/13 07:36:29;;;;;;;33.30;19.75;;;3.60;99.90;;;;;;4974425;28;20619;-80
2024/01/13 07:38:55;;;;;;;32.90;18.27;;;3.60;99.90;;;;;;4958343;28;20046;-82
2024/01/13 07:41:22;;;;;;;36.35;21.48;;;3.60;99.90;;;;;;4974364;28;20022;-83
2024/01/13 07:43:48;;;;;;;33.33;19.80;;;3.70;99.90;;;;;;4974924;28;20041;-82
2024/01/13 07:46:14;;;;;;;41.20;21.08;;;3.60;99.90;;;;;;4975014;28;20038;-79
2024/01/13 07:48:41;;;;;;;46.40;22.95;;;3.60;99.90;;;;;;5005558;28;20038;-81
2024/01/13 07:51:07;;;;;;;40.38;21.35;;;3.60;99.90;;;;;;4959657;28;20034;-81
2024/01/13 07:53:33;;;;;;;49.93;24.07;;;3.60;99.90;;;;;;4975501;28;20041;-83
2024/01/13 07:56:00;;;;;;;48.17;23.33;;;3.60;99.90;;;;;;4975005;28;20030;-81
2024/01/13 07:58:26;;;;;;;55.00;25.77;;;3.60;99.90;;;;;;4975383;28;20604;-81
2024/01/13 08:00:53;;;;;;;48.50;23.27;;;3.70;99.90;;;;;;4959052;28;20409;-83
2024/01/13 08:03:19;;;;;;;40.27;20.07;;;3.60;99.90;;;;;;4973823;28;20041;-82
2024/01/13 08:05:45;;;;;;;47.92;22.17;;;3.70;99.90;;;;;;5004740;28;20031;-82
2024/01/13 08:08:11;;;;;;;47.53;20.70;;;3.70;99.90;;;;;;4991068;28;20034;-82
2024/01/13 08:10:38;;;;;;;44.58;21.45;;;3.70;99.90;;;;;;4957432;28;20034;-83
2024/01/13 08:13:05;;;;;;;44.70;21.88;;;3.70;99.90;;;;;;4974886;28;20396;-83
2024/01/13 08:15:31;;;;;;;45.70;21.42;;;3.70;99.90;;;;;;4975112;28;20030;-79
2024/01/13 08:17:58;;;;;;;46.20;21.30;;;3.70;99.90;;;;;;4975117;28;20410;-82
2024/01/13 08:20:24;;;;;;;51.08;24.08;;;3.70;99.90;;;;;;4973948;28;20051;-82
2024/01/13 08:22:51;;;;;;;40.08;19.90;;;3.80;99.90;;;;;;5008578;28;20034;-83
2024/01/13 08:25:17;;;;;;;52.03;25.20;;;3.70;99.90;;;;;;4962637;28;20129;-77
2024/01/13 08:27:43;;;;;;;44.38;21.30;;;3.80;99.90;;;;;;4974965;28;20034;-76
2024/01/13 08:30:10;;;;;;;44.70;22.30;;;3.80;99.90;;;;;;4976493;28;20049;-80
2024/01/13 08:32:36;;;;;;;46.75;22.30;;;3.80;99.90;;;;;;4975800;28;20038;-81
2024/01/13 08:35:03;;;;;;;54.30;25.20;;;3.80;99.90;;;;;;4957573;28;20034;-77
2024/01/13 08:37:29;;;;;;;43.28;21.92;;;3.80;99.90;;;;;;4975517;28;20519;-81
2024/01/13 08:39:55;;;;;;;48.15;22.05;;;3.80;99.90;;;;;;4989544;28;20034;-84
2024/01/13 08:42:22;;;;;;;44.67;21.88;;;3.80;99.90;;;;;;4972285;28;20034;-83
2024/01/13 08:44:48;;;;;;;44.20;23.13;;;3.80;99.90;;;;;;4973677;28;20027;-82
2024/01/13 08:47:14;;;;;;;36.40;19.75;;;3.90;99.90;;;;;;4976744;28;20042;-82
2024/01/13 08:49:41;;;;;;;38.42;19.88;;;3.90;99.90;;;;;;4976673;28;20038;-81
2024/01/13 08:52:10;;;;;;;36.60;19.10;;;3.80;99.90;;;;;;4961292;28;20030;-82
2024/01/13 08:54:36;;;;;;;36.33;19.92;;;3.90;99.90;;;;;;4973590;28;20486;-83
2024/01/13 08:57:06;;;;;;;30.67;17.45;;;3.90;99.90;;;;;;4976318;28;20041;-81
2024/01/13 08:59:33;;;;;;;29.15;16.40;;;3.90;99.90;;;;;;4975591;28;20702;-81
2024/01/13 09:02:00;;;;;;;27.15;16.10;;;3.90;99.90;;;;;;4991952;28;20393;-83
2024/01/13 09:04:26;;;;;;;29.85;17.25;;;3.90;99.90;;;;;;4959217;28;20045;-81
2024/01/13 09:06:53;;;;;;;29.52;17.45;;;3.90;99.90;;;;;;4974106;28;20470;-80
2024/01/13 09:09:19;;;;;;;34.88;19.05;;;3.90;99.90;;;;;;4959161;28;20452;-81
2024/01/13 09:11:46;;;;;;;29.63;17.87;;;3.90;99.90;;;;;;4941781;28;20053;-79
2024/01/13 09:14:13;;;;;;;29.88;17.23;;;4.00;99.90;;;;;;4974469;28;20687;-82
2024/01/13 09:16:39;;;;;;;32.10;18.00;;;3.90;99.90;;;;;;4990655;28;20026;-80
2024/01/13 09:19:06;;;;;;;31.30;18.95;;;4.00;99.90;;;;;;4973739;28;20472;-81
2024/01/13 09:21:32;;;;;;;34.20;20.77;;;4.00;99.90;;;;;;4958797;28;20517;-80
2024/01/13 09:24:00;;;;;;;46.00;23.35;;;4.00;99.90;;;;;;4976149;28;20734;-82
2024/01/13 09:26:26;;;;;;;32.40;20.10;;;4.00;99.90;;;;;;4957542;28;20053;-82
2024/01/13 09:28:53;;;;;;;33.28;21.42;;;4.00;99.90;;;;;;4971473;28;20505;-80
2024/01/13 09:31:19;;;;;;;34.65;19.75;;;4.00;99.90;;;;;;4972714;28;20525;-82
2024/01/13 09:33:46;;;;;;;34.70;21.70;;;4.00;99.90;;;;;;4974068;28;20045;-79
2024/01/13 09:36:13;;;;;;;29.73;18.77;;;4.00;99.90;;;;;;4939516;28;20373;-82
2024/01/13 09:38:39;;;;;;;27.55;17.80;;;4.00;99.90;;;;;;4988186;28;20050;-81
2024/01/13 09:41:06;;;;;;;27.83;17.88;;;4.00;99.90;;;;;;5006506;28;20042;-80
2024/01/13 09:43:42;;;;;;;27.70;17.23;;;4.00;99.90;;;;;;4987583;28;20038;-83
2024/01/13 09:46:08;;;;;;;25.58;16.42;;;4.00;99.90;;;;;;4960770;28;20041;-80
2024/01/13 09:48:35;;;;;;;24.10;17.05;;;4.00;99.90;;;;;;4976253;28;20045;-81
2024/01/13 09:51:02;;;;;;;22.80;15.45;;;4.00;99.90;;;;;;4962206;28;20035;-81
2024/01/13 09:53:41;;;;;;;24.63;16.35;;;4.00;99.90;;;;;;4992891;28;20389;-82
2024/01/13 09:56:13;;;;;;;26.70;16.42;;;4.10;99.90;;;;;;4961907;28;20042;-82
2024/01/13 09:58:39;;;;;;;30.48;18.20;;;4.10;99.90;;;;;;4977563;28;20042;-82
2024/01/13 10:01:07;;;;;;;24.52;17.15;;;4.10;99.90;;;;;;4960628;28;20777;-79
2024/01/13 10:03:34;;;;;;;25.10;16.48;;;4.10;99.90;;;;;;4977476;28;20497;-81
2024/01/13 10:06:00;;;;;;;24.80;17.20;;;4.10;99.90;;;;;;4946532;28;20521;-82
2024/01/13 10:08:32;;;;;;;25.98;17.00;;;4.10;99.90;;;;;;4979493;28;20378;-77
2024/01/13 10:11:05;;;;;;;24.92;15.60;;;4.10;99.90;;;;;;4976798;28;20026;-82
2024/01/13 10:13:32;;;;;;;25.58;16.58;;;4.10;99.90;;;;;;4992617;28;20065;-86
2024/01/13 10:15:58;;;;;;;22.38;14.93;;;4.10;99.90;;;;;;4978116;28;20034;-85
2024/01/13 10:18:25;;;;;;;23.27;15.75;;;4.10;99.90;;;;;;5007296;28;20037;-79
2024/01/13 10:20:52;;;;;;;19.42;13.77;;;4.10;99.90;;;;;;4977424;28;20026;-82
2024/01/13 10:23:18;;;;;;;20.00;13.43;;;4.10;99.90;;;;;;4961012;28;20034;-81
2024/01/13 10:25:44;;;;;;;20.88;13.82;;;4.10;99.90;;;;;;4977190;28;20038;-81
2024/01/13 10:28:11;;;;;;;18.35;12.25;;;4.10;99.90;;;;;;4975283;28;20038;-86
2024/01/13 10:30:37;;;;;;;19.05;11.90;;;4.10;99.90;;;;;;4993719;28;20049;-79
2024/01/13 10:33:04;;;;;;;18.08;12.35;;;4.10;99.90;;;;;;4975898;28;20046;-82
2024/01/13 10:35:30;;;;;;;21.35;13.02;;;4.10;99.90;;;;;;4976143;28;20034;-82
2024/01/13 10:37:58;;;;;;;17.50;11.73;;;4.10;99.90;;;;;;4991712;28;20050;-79
2024/01/13 10:40:24;;;;;;;19.33;12.55;;;4.20;99.90;;;;;;4976783;28;20046;-79
2024/01/13 10:42:57;;;;;;;20.27;12.50;;;4.20;99.90;;;;;;4995400;28;20475;-79
2024/01/13 10:45:25;;;;;;;16.80;11.00;;;4.20;99.90;;;;;;4980608;28;20108;-81
2024/01/13 10:47:53;;;;;;;20.23;12.27;;;4.20;99.90;;;;;;4975824;28;20042;-76
2024/01/13 10:50:20;;;;;;;19.60;12.38;;;4.20;99.90;;;;;;4977937;28;20026;-81
2024/01/13 10:53:16;;;;;;;18.20;12.27;;;4.20;99.90;;;;;;4976247;28;20053;-80
2024/01/13 10:55:43;;;;;;;20.80;12.82;;;4.20;99.90;;;;;;4941834;28;20051;-82
2024/01/13 10:58:10;;;;;;;22.23;12.88;;;4.20;99.90;;;;;;4974637;28;20038;-81
2024/01/13 11:00:37;;;;;;;19.27;12.43;;;4.20;99.90;;;;;;4976472;28;20045;-84
2024/01/13 11:03:05;;;;;;;21.58;12.35;;;4.20;99.90;;;;;;4989700;28;20380;-81
2024/01/13 11:05:34;;;;;;;24.92;15.68;;;4.20;99.90;;;;;;4975874;28;20042;-80
2024/01/13 11:08:03;;;;;;;20.48;13.70;;;4.20;99.90;;;;;;4975998;28;20030;-80
2024/01/13 11:10:35;;;;;;;23.85;14.90;;;4.20;99.90;;;;;;4975474;28;20034;-84
2024/01/13 11:13:16;;;;;;;24.70;14.50;;;4.20;99.90;;;;;;4992836;28;20486;-80
2024/01/13 11:15:49;;;;;;;23.85;14.65;;;4.20;99.90;;;;;;4961017;28;20466;-81
2024/01/13 11:18:19;;;;;;;28.95;18.75;;;4.20;99.90;;;;;;4958994;28;20046;-81
2024/01/13 11:21:02;;;;;;;27.75;18.38;;;4.20;99.90;;;;;;4990220;28;20038;-81
2024/01/13 11:23:37;;;;;;;31.05;19.90;;;4.20;99.90;;;;;;5007997;28;20045;-81
2024/01/13 11:26:04;;;;;;;33.88;20.50;;;4.20;99.90;;;;;;4974509;28;20034;-82
2024/01/13 11:28:50;;;;;;;28.40;19.08;;;4.20;99.90;;;;;;4960556;28;20045;-82
2024/01/13 11:31:39;;;;;;;31.67;20.15;;;4.20;99.90;;;;;;4992785;28;20034;-81
2024/01/13 11:34:07;;;;;;;34.97;22.05;;;4.20;99.90;;;;;;4960356;28;20041;-80
2024/01/13 11:36:35;;;;;;;34.85;21.98;;;4.10;99.90;;;;;;4991069;28;20038;-83
2024/01/13 11:39:03;;;;;;;33.83;22.02;;;4.10;99.90;;;;;;4990373;28;20043;-80
2024/01/13 11:41:46;;;;;;;33.15;21.17;;;4.10;99.90;;;;;;4962159;28;20524;-80
2024/01/13 11:44:23;;;;;;;35.38;21.70;;;4.10;99.90;;;;;;4973523;28;20046;-84
2024/01/13 11:47:10;;;;;;;37.70;23.90;;;4.10;99.90;;;;;;5006756;28;20374;-79
2024/01/13 11:49:44;;;;;;;37.55;22.00;;;4.10;99.90;;;;;;4994305;28;20045;-81
2024/01/13 11:52:15;;;;;;;38.40;23.15;;;4.10;99.90;;;;;;4959829;28;20038;-83
2024/01/13 11:54:43;;;;;;;38.30;23.58;;;4.10;99.90;;;;;;4989772;28;20034;-84
2024/01/13 11:57:11;;;;;;;40.83;24.30;;;4.20;99.90;;;;;;4976020;28;20298;-85
2024/01/13 11:59:38;;;;;;;40.83;22.67;;;4.20;99.90;;;;;;4977578;28;20045;-83
2024/01/13 12:02:05;;;;;;;47.47;28.50;;;4.20;99.90;;;;;;4978040;28;20045;-82
2024/01/13 12:04:34;;;;;;;46.83;28.23;;;4.20;99.90;;;;;;5010940;28;20033;-79
2024/01/13 12:07:00;;;;;;;44.20;26.50;;;4.20;99.90;;;;;;4972278;28;20049;-79
2024/01/13 12:09:28;;;;;;;42.55;26.38;;;4.20;99.90;;;;;;4961741;28;20038;-80
2024/01/13 12:11:55;;;;;;;48.78;27.92;;;4.30;99.90;;;;;;4992609;28;20042;-73
2024/01/13 12:14:29;;;;;;;44.95;26.95;;;4.40;99.90;;;;;;5009346;28;20046;-78
2024/01/13 12:16:58;;;;;;;50.17;30.15;;;4.40;99.90;;;;;;4961423;28;20038;-79
2024/01/13 12:19:32;;;;;;;47.80;29.55;;;4.50;99.90;;;;;;4974981;28;20449;-76
2024/01/13 12:21:58;;;;;;;54.10;31.55;;;4.50;99.90;;;;;;4957614;28;20033;-80
2024/01/13 12:24:27;;;;;;;46.80;28.20;;;4.50;99.90;;;;;;4974832;28;20485;-82
2024/01/13 12:26:54;;;;;;;53.03;30.35;;;4.50;99.90;;;;;;4991424;28;20045;-82
2024/01/13 12:29:30;;;;;;;52.05;32.22;;;4.50;99.90;;;;;;4958883;28;20030;-83
2024/01/13 12:32:03;;;;;;;55.60;32.17;;;4.50;99.90;;;;;;4977256;28;20030;-79
2024/01/13 12:34:38;;;;;;;49.53;31.30;;;4.50;99.90;;;;;;4978782;28;20037;-80
2024/01/13 12:37:05;;;;;;;50.72;29.42;;;4.50;99.90;;;;;;4980692;28;20800;-75
2024/01/13 12:39:31;;;;;;;52.38;31.98;;;4.50;99.90;;;;;;4980338;28;20054;-75